createdAt,value
2022-11-04T00:02:33.064Z,11.77
2022-11-04T00:05:36.013Z,11.67
2022-11-04T00:08:38.411Z,11.64
2022-11-04T00:11:59.967Z,11.65
2022-11-04T00:15:22.466Z,11.72
2022-11-04T00:18:25.484Z,11.64
2022-11-04T00:21:47.475Z,11.63
2022-11-04T00:25:09.339Z,11.60
2022-11-04T00:28:38.208Z,11.64
2022-11-04T00:31:59.943Z,11.71
2022-11-04T00:35:02.435Z,11.77
2022-11-04T00:38:05.705Z,11.63
2022-11-04T00:41:26.351Z,11.67
2022-11-04T00:44:29.926Z,11.61
2022-11-04T00:47:32.795Z,11.63
2022-11-04T00:50:36.137Z,11.61
2022-11-04T00:53:38.624Z,11.61
2022-11-04T00:56:42.067Z,11.58
2022-11-04T00:59:45.768Z,11.63
2022-11-04T01:02:49.123Z,11.65
2022-11-04T01:05:51.653Z,11.62
2022-11-04T01:09:00.147Z,11.58
2022-11-04T01:12:02.657Z,11.61
2022-11-04T01:15:06.095Z,11.65
2022-11-04T01:18:09.551Z,11.66
2022-11-04T01:21:14.775Z,11.67
2022-11-04T01:24:17.279Z,11.70
2022-11-04T01:27:20.281Z,11.72
2022-11-04T01:30:22.749Z,11.77
2022-11-04T01:33:25.984Z,11.74
2022-11-04T01:36:28.766Z,11.75
2022-11-04T01:39:31.801Z,11.75
2022-11-04T01:42:34.601Z,11.77
2022-11-04T01:45:37.927Z,11.82
2022-11-04T01:48:40.549Z,11.84
2022-11-04T01:51:45.119Z,11.80
2022-11-04T01:54:50.782Z,11.82
2022-11-04T01:57:58.519Z,11.77
2022-11-04T02:01:02.510Z,11.81
2022-11-04T02:04:24.414Z,11.84
2022-11-04T02:07:28.775Z,11.81
2022-11-04T02:10:32.604Z,11.77
2022-11-04T02:13:36.341Z,11.83
2022-11-04T02:16:46.130Z,11.81
2022-11-04T02:20:37.122Z,11.81
2022-11-04T02:23:58.546Z,11.81
2022-11-04T02:27:18.942Z,11.79
2022-11-04T02:30:22.226Z,11.72
2022-11-04T02:33:34.206Z,11.81
2022-11-04T02:36:44.578Z,11.62
2022-11-04T02:39:52.996Z,11.61
2022-11-04T02:43:15.310Z,11.59
2022-11-04T02:46:38.301Z,11.62
2022-11-04T02:49:48.897Z,11.59
2022-11-04T02:52:58.642Z,11.56
2022-11-04T02:56:04.272Z,11.64
2022-11-04T02:59:15.453Z,11.57
2022-11-04T03:02:40.067Z,11.61
2022-11-04T03:05:46.183Z,11.66
2022-11-04T03:08:52.897Z,11.72
2022-11-04T03:12:06.029Z,11.67
2022-11-04T03:15:17.819Z,11.64
2022-11-04T03:18:36.477Z,11.65
2022-11-04T03:21:47.047Z,11.65
2022-11-04T03:24:50.438Z,11.70
2022-11-04T03:27:59.480Z,11.65
2022-11-04T03:31:04.836Z,11.68
2022-11-04T03:34:07.898Z,11.70
2022-11-04T03:37:10.691Z,11.65
2022-11-04T03:40:15.041Z,11.65
2022-11-04T03:43:27.802Z,11.62
2022-11-04T03:46:30.905Z,11.56
2022-11-04T03:49:33.654Z,11.57
2022-11-04T03:52:37.013Z,11.61
2022-11-04T03:56:07.178Z,11.59
2022-11-04T03:59:44.188Z,11.51
2022-11-04T04:03:05.111Z,11.46
2022-11-04T04:06:19.998Z,11.32
2022-11-04T04:09:27.679Z,11.31
2022-11-04T04:12:36.537Z,11.30
2022-11-04T04:16:10.836Z,11.30
2022-11-04T04:19:21.278Z,11.31
2022-11-04T04:22:30.947Z,11.28
2022-11-04T04:26:12.738Z,11.23
2022-11-04T04:29:18.441Z,11.19
2022-11-04T04:32:24.620Z,11.14
2022-11-04T04:35:42.099Z,11.25
2022-11-04T04:39:03.735Z,11.25
2022-11-04T04:42:25.983Z,11.23
2022-11-04T04:45:35.158Z,11.27
2022-11-04T04:48:37.823Z,11.27
2022-11-04T04:51:47.211Z,11.25
2022-11-04T04:54:49.699Z,11.28
2022-11-04T04:57:52.909Z,11.20
2022-11-04T05:00:55.452Z,11.25
2022-11-04T05:03:58.501Z,11.22
2022-11-04T05:07:01.146Z,11.09
2022-11-04T05:10:04.524Z,11.09
2022-11-04T05:13:25.543Z,11.08
2022-11-04T05:16:29.349Z,11.03
2022-11-04T05:19:31.801Z,11.05
2022-11-04T05:22:34.818Z,11.08
2022-11-04T05:25:37.482Z,11.09
2022-11-04T05:28:41.229Z,11.00
2022-11-04T05:31:43.582Z,11.04
2022-11-04T05:34:48.232Z,11.09
2022-11-04T05:37:50.839Z,11.11
2022-11-04T05:40:53.885Z,11.08
2022-11-04T05:43:59.017Z,11.09
2022-11-04T05:47:05.103Z,11.04
2022-11-04T05:50:08.563Z,11.08
2022-11-04T05:53:12.143Z,11.07
2022-11-04T05:56:15.083Z,11.08
2022-11-04T05:59:18.033Z,11.08
2022-11-04T06:02:20.695Z,11.03
2022-11-04T06:05:24.387Z,11.03
2022-11-04T06:08:26.859Z,11.03
2022-11-04T06:11:31.387Z,10.86
2022-11-04T06:14:33.860Z,10.94
2022-11-04T06:17:37.965Z,10.98
2022-11-04T06:20:40.737Z,11.03
2022-11-04T06:23:44.146Z,11.00
2022-11-04T06:26:46.575Z,11.05
2022-11-04T06:29:49.665Z,11.07
2022-11-04T06:32:52.107Z,11.07
2022-11-04T06:35:58.969Z,11.02
2022-11-04T06:39:04.687Z,10.91
2022-11-04T06:42:08.027Z,10.94
2022-11-04T06:45:11.888Z,10.88
2022-11-04T06:48:14.931Z,10.93
2022-11-04T06:51:17.363Z,10.88
2022-11-04T06:54:20.428Z,10.96
2022-11-04T06:57:22.883Z,10.96
2022-11-04T07:00:26.653Z,10.94
2022-11-04T07:03:29.998Z,10.99
2022-11-04T07:06:33.287Z,11.04
2022-11-04T07:09:35.741Z,11.06
2022-11-04T07:12:38.870Z,11.01
2022-11-04T07:15:41.354Z,11.05
2022-11-04T07:18:44.605Z,11.10
2022-11-04T07:21:47.064Z,11.15
2022-11-04T07:24:50.177Z,11.10
2022-11-04T07:27:54.569Z,11.22
2022-11-04T07:31:01.893Z,11.14
2022-11-04T07:34:04.430Z,11.13
2022-11-04T07:37:07.449Z,11.17
2022-11-04T07:40:10.450Z,11.10
2022-11-04T07:43:14.238Z,11.10
2022-11-04T07:46:19.105Z,11.12
2022-11-04T07:49:22.182Z,11.20
2022-11-04T07:52:25.328Z,11.16
2022-11-04T07:55:28.361Z,11.18
2022-11-04T07:58:30.840Z,11.10
2022-11-04T08:01:34.275Z,11.07
2022-11-04T08:04:37.332Z,11.01
2022-11-04T08:07:41.035Z,11.07
2022-11-04T08:10:43.798Z,11.09
2022-11-04T08:13:47.437Z,11.20
2022-11-04T08:16:53.123Z,11.13
2022-11-04T08:19:56.128Z,11.17
2022-11-04T08:22:58.915Z,11.18
2022-11-04T08:26:01.982Z,11.15
2022-11-04T08:29:08.399Z,11.16
2022-11-04T08:32:11.070Z,11.24
2022-11-04T08:35:13.827Z,11.19
2022-11-04T08:38:16.661Z,11.15
2022-11-04T08:41:31.383Z,11.16
2022-11-04T08:45:14.660Z,11.18
2022-11-04T08:49:20.790Z,11.22
2022-11-04T08:56:48.669Z,11.27
2022-11-04T09:00:01.122Z,11.29
2022-11-04T09:03:05.065Z,11.36
2022-11-04T09:06:10.791Z,11.27
2022-11-04T09:09:16.143Z,11.30
2022-11-04T09:12:21.506Z,11.37
2022-11-04T09:15:26.226Z,11.44
2022-11-04T09:18:30.640Z,11.50
2022-11-04T09:21:33.917Z,11.63
2022-11-04T09:24:36.582Z,11.60
2022-11-04T09:27:39.679Z,11.54
2022-11-04T09:30:42.144Z,11.55
2022-11-04T09:33:45.523Z,11.57
2022-11-04T09:36:48.208Z,11.58
2022-11-04T09:39:54.025Z,11.53
2022-11-04T09:43:30.730Z,11.62
2022-11-04T09:46:36.352Z,11.55
2022-11-04T09:49:43.049Z,11.53
2022-11-04T09:53:03.358Z,11.50
2022-11-04T09:56:15.703Z,11.54
2022-11-04T09:59:29.516Z,11.47
2022-11-04T10:03:18.282Z,11.54
2022-11-04T10:06:35.508Z,11.54
2022-11-04T10:09:54.792Z,11.54
2022-11-04T10:13:24.589Z,11.70
2022-11-04T10:16:50.625Z,11.65
2022-11-04T10:20:15.914Z,11.55
2022-11-04T10:23:33.682Z,11.55
2022-11-04T10:26:43.957Z,11.58
2022-11-04T10:30:06.707Z,11.68
2022-11-04T10:33:21.533Z,11.48
2022-11-04T10:36:25.064Z,11.44
2022-11-04T10:39:33.235Z,11.47
2022-11-04T10:42:35.919Z,11.50
2022-11-04T10:45:59.219Z,11.55
2022-11-04T10:49:35.942Z,11.57
2022-11-04T10:52:40.261Z,11.66
2022-11-04T10:56:20.768Z,11.53
2022-11-04T10:59:29.336Z,11.73
2022-11-04T11:02:37.798Z,11.77
2022-11-04T11:05:41.004Z,11.81
2022-11-04T11:08:44.349Z,11.82
2022-11-04T11:11:52.107Z,11.83
2022-11-04T11:14:54.810Z,11.91
2022-11-04T11:18:28.513Z,11.92
2022-11-04T11:21:43.779Z,12.02
2022-11-04T11:24:46.877Z,12.15
2022-11-04T11:27:53.960Z,12.17
2022-11-04T11:31:05.711Z,12.24
2022-11-04T11:34:19.509Z,12.25
2022-11-04T11:37:25.321Z,12.27
2022-11-04T11:40:51.937Z,12.27
2022-11-04T11:44:22.906Z,12.23
2022-11-04T11:47:25.284Z,12.29
2022-11-04T11:50:32.648Z,12.38
2022-11-04T11:53:39.802Z,12.36
2022-11-04T12:11:15.087Z,12.47
2022-11-04T12:14:57.943Z,12.51
2022-11-04T12:18:19.743Z,12.52
2022-11-04T12:21:33.342Z,12.63
2022-11-04T12:25:15.453Z,12.63
2022-11-04T12:28:31.744Z,12.63
2022-11-04T12:31:53.948Z,12.74
2022-11-04T12:35:11.860Z,12.87
2022-11-04T12:38:34.748Z,12.89
2022-11-04T12:42:14.243Z,12.92
2022-11-04T12:45:21.305Z,13.03
2022-11-04T12:48:57.867Z,13.08
2022-11-04T12:52:09.150Z,13.15
2022-11-04T12:55:24.335Z,13.13
2022-11-04T12:58:42.581Z,13.15
2022-11-04T13:01:52.371Z,13.15
2022-11-04T13:05:19.502Z,13.12
2022-11-04T13:08:33.174Z,13.23
2022-11-04T13:11:48.783Z,13.08
2022-11-04T13:14:55.333Z,13.24
2022-11-04T13:18:04.873Z,13.20
2022-11-04T13:21:14.197Z,13.14
2022-11-04T13:24:31.922Z,13.19
2022-11-04T13:27:44.821Z,13.11
2022-11-04T13:30:55.658Z,13.15
2022-11-04T13:34:20.544Z,13.14
2022-11-04T13:37:44.679Z,13.24
2022-11-04T13:41:03.818Z,13.19
2022-11-04T13:44:27.010Z,13.07
2022-11-04T13:47:37.150Z,13.03
2022-11-04T13:50:40.854Z,13.01
2022-11-04T13:53:45.706Z,13.02
2022-11-04T13:56:48.757Z,12.98
2022-11-04T14:00:13.094Z,13.05
2022-11-04T14:03:22.028Z,12.97
2022-11-04T14:09:58.200Z,13.00
2022-11-04T14:13:26.336Z,13.07
2022-11-04T14:16:39.769Z,12.94
2022-11-04T14:20:11.548Z,12.81
2022-11-04T14:23:24.508Z,12.85
2022-11-04T14:26:45.016Z,12.82
2022-11-04T14:29:53.478Z,12.89
2022-11-04T14:33:06.642Z,12.93
2022-11-04T14:36:32.190Z,12.89
2022-11-04T14:39:43.538Z,12.84
2022-11-04T14:42:50.454Z,12.82
2022-11-04T14:45:55.474Z,12.77
2022-11-04T14:49:01.805Z,12.74
2022-11-04T14:52:20.792Z,12.72
2022-11-04T14:55:30.229Z,12.72
2022-11-04T14:58:32.741Z,12.70
2022-11-04T15:01:40.462Z,12.72
2022-11-04T15:04:50.558Z,12.74
2022-11-04T15:07:53.662Z,12.79
2022-11-04T15:11:45.390Z,12.69
2022-11-04T15:14:48.389Z,12.71
2022-11-04T15:17:51.108Z,12.67
2022-11-04T15:20:59.826Z,12.65
2022-11-04T15:24:02.356Z,12.65
2022-11-04T15:27:06.261Z,12.61
2022-11-04T15:30:22.203Z,12.58
2022-11-04T15:33:27.646Z,12.60
2022-11-04T15:36:36.069Z,12.59
2022-11-04T15:39:43.602Z,12.59
2022-11-04T15:42:47.319Z,12.59
2022-11-04T15:45:51.896Z,12.59
2022-11-04T15:49:07.935Z,12.60
2022-11-04T15:52:23.725Z,12.61
2022-11-04T15:55:28.211Z,12.61
2022-11-04T15:58:31.741Z,12.59
2022-11-04T16:01:34.421Z,12.53
2022-11-04T16:04:37.633Z,12.49
2022-11-04T16:07:42.254Z,12.46
2022-11-04T16:10:45.378Z,12.42
2022-11-04T16:13:48.338Z,12.48
2022-11-04T16:16:53.545Z,12.45
2022-11-04T16:20:00.462Z,12.41
2022-11-04T16:23:03.897Z,12.42
2022-11-04T16:26:07.404Z,12.41
2022-11-04T16:29:19.055Z,12.39
2022-11-04T16:32:31.187Z,12.40
2022-11-04T16:35:34.186Z,12.39
2022-11-04T16:38:36.620Z,12.38
2022-11-04T16:41:41.000Z,12.40
2022-11-04T16:44:52.165Z,12.36
2022-11-04T16:47:55.235Z,12.38
2022-11-04T16:50:57.678Z,12.30
2022-11-04T16:54:00.913Z,12.28
2022-11-04T16:57:06.832Z,12.26
2022-11-04T17:00:21.117Z,12.25
2022-11-04T17:03:23.549Z,12.26
2022-11-04T17:06:26.604Z,12.25
2022-11-04T17:09:29.078Z,12.25
2022-11-04T17:12:32.076Z,12.28
2022-11-04T17:15:34.579Z,12.30
2022-11-04T17:18:37.587Z,12.31
2022-11-04T17:21:40.024Z,12.26
2022-11-04T17:24:43.030Z,12.27
2022-11-04T17:27:45.731Z,12.30
2022-11-04T17:30:48.711Z,12.29
2022-11-04T17:33:51.065Z,12.25
2022-11-04T17:36:54.319Z,12.29
2022-11-04T17:39:56.833Z,12.29
2022-11-04T17:43:18.559Z,12.37
2022-11-04T17:46:41.722Z,12.41
2022-11-04T17:49:44.966Z,12.41
2022-11-04T17:52:49.275Z,12.45
2022-11-04T17:55:52.530Z,12.42
2022-11-04T17:58:55.023Z,12.41
2022-11-04T18:01:58.285Z,12.41
2022-11-04T18:05:03.854Z,12.40
2022-11-04T18:08:06.603Z,12.39
2022-11-04T18:11:11.356Z,12.40
2022-11-04T18:14:17.001Z,12.38
2022-11-04T18:17:24.566Z,12.38
2022-11-04T18:20:27.634Z,12.42
2022-11-04T18:23:30.703Z,12.39
2022-11-04T18:26:33.444Z,12.34
2022-11-04T18:29:36.780Z,12.35
2022-11-04T18:32:39.548Z,12.33
2022-11-04T18:35:42.276Z,12.34
2022-11-04T18:38:45.524Z,12.35
2022-11-04T18:41:48.312Z,12.32
2022-11-04T18:44:51.028Z,12.31
2022-11-04T18:47:53.745Z,12.27
2022-11-04T18:51:00.144Z,12.30
2022-11-04T18:54:04.979Z,12.28
2022-11-04T18:57:10.171Z,12.32
2022-11-04T19:00:17.062Z,12.33
2022-11-04T19:03:21.093Z,12.33
2022-11-04T19:06:27.667Z,12.32
2022-11-04T19:09:47.447Z,12.25
2022-11-04T19:13:09.251Z,12.29
2022-11-04T19:16:13.281Z,12.32
2022-11-04T19:19:16.662Z,12.32
2022-11-04T19:22:19.389Z,12.34
2022-11-04T19:25:22.181Z,12.45
2022-11-04T19:28:37.527Z,12.39
2022-11-04T19:31:47.551Z,12.43
2022-11-04T19:34:50.274Z,12.46
2022-11-04T19:37:53.135Z,12.48
2022-11-04T19:40:56.259Z,12.45
2022-11-04T19:44:00.983Z,12.48
2022-11-04T19:47:03.848Z,12.47
2022-11-04T19:50:07.015Z,12.49
2022-11-04T19:53:10.543Z,12.51
2022-11-04T19:56:15.859Z,12.52
2022-11-04T19:59:19.226Z,12.51
2022-11-04T20:02:22.075Z,12.51
2022-11-04T20:05:25.173Z,12.53
2022-11-04T20:08:28.017Z,12.52
2022-11-04T20:11:32.852Z,12.55
2022-11-04T20:14:35.370Z,12.54
2022-11-04T20:17:38.355Z,12.57
2022-11-04T20:20:40.835Z,12.57
2022-11-04T20:23:44.242Z,12.55
2022-11-04T20:26:47.595Z,12.55
2022-11-04T20:29:50.615Z,12.51
2022-11-04T20:32:53.045Z,12.53
2022-11-04T20:35:56.103Z,12.52
2022-11-04T20:39:00.413Z,12.50
2022-11-04T20:42:03.570Z,12.52
2022-11-04T20:45:06.488Z,12.52
2022-11-04T20:48:09.960Z,12.53
2022-11-04T20:51:13.741Z,12.49
2022-11-04T20:54:16.876Z,12.48
2022-11-04T20:57:19.577Z,12.51
2022-11-04T21:00:23.373Z,12.53
2022-11-04T21:03:25.772Z,12.52
2022-11-04T21:06:32.614Z,12.52
2022-11-04T21:09:35.176Z,12.55
2022-11-04T21:12:38.043Z,12.56
2022-11-04T21:15:40.477Z,12.51
2022-11-04T21:18:43.788Z,12.49
2022-11-04T21:21:47.132Z,12.49
2022-11-04T21:24:50.299Z,12.48
2022-11-04T21:27:52.807Z,12.49
2022-11-04T21:30:55.866Z,12.49
2022-11-04T21:33:58.804Z,12.41
2022-11-04T21:37:01.834Z,12.46
2022-11-04T21:40:04.718Z,12.49
2022-11-04T21:43:07.738Z,12.48
2022-11-04T21:46:13.806Z,12.50
2022-11-04T21:49:17.797Z,12.51
2022-11-04T21:52:20.250Z,12.55
2022-11-04T21:55:24.417Z,12.51
2022-11-04T21:58:26.896Z,12.54
2022-11-04T22:01:31.349Z,12.55
2022-11-04T22:04:34.214Z,12.56
2022-11-04T22:07:55.792Z,12.61
2022-11-04T22:11:08.131Z,12.54
2022-11-04T22:14:12.009Z,12.56
2022-11-04T22:17:14.706Z,12.56
2022-11-04T22:20:17.491Z,12.53
2022-11-04T22:23:20.711Z,12.51
2022-11-04T22:26:25.064Z,12.50
2022-11-04T22:29:27.658Z,12.44
2022-11-04T22:32:32.709Z,12.42
2022-11-04T22:35:35.416Z,12.39
2022-11-04T22:38:39.173Z,12.40
2022-11-04T22:41:43.422Z,12.30
2022-11-04T22:44:46.136Z,12.31
2022-11-04T22:47:50.176Z,12.31
2022-11-04T22:50:58.628Z,12.25
2022-11-04T22:54:07.636Z,12.20
2022-11-04T22:57:10.844Z,12.14
2022-11-04T23:00:14.288Z,12.11
2022-11-04T23:03:17.350Z,12.09
2022-11-04T23:06:20.303Z,12.07
2022-11-04T23:09:23.433Z,12.04
2022-11-04T23:12:45.091Z,12.01
2022-11-04T23:16:06.715Z,12.00
2022-11-04T23:19:10.688Z,12.00
2022-11-04T23:22:32.119Z,12.00
2022-11-04T23:25:34.850Z,11.96
2022-11-04T23:28:56.069Z,11.95
2022-11-04T23:31:58.940Z,11.97
2022-11-04T23:35:20.048Z,11.87
2022-11-04T23:38:23.821Z,11.89
2022-11-04T23:41:45.272Z,11.91
2022-11-04T23:45:06.439Z,11.88
2022-11-04T23:48:29.606Z,11.87
2022-11-04T23:51:50.888Z,11.85
2022-11-04T23:55:12.312Z,11.92
2022-11-04T23:58:33.694Z,11.84
